createdAt,value
2023-03-27T00:00:57.024Z,10.19
2023-03-27T00:05:01.778Z,10.12
2023-03-27T00:09:08.437Z,10.05
2023-03-27T00:13:11.489Z,10.02
2023-03-27T00:17:14.511Z,9.98
2023-03-27T00:21:17.801Z,9.91
2023-03-27T00:25:23.528Z,9.92
2023-03-27T00:29:27.752Z,9.91
2023-03-27T00:33:30.891Z,9.88
2023-03-27T00:37:34.059Z,9.87
2023-03-27T00:41:38.744Z,9.84
2023-03-27T00:45:42.087Z,9.82
2023-03-27T00:49:45.893Z,9.80
2023-03-27T00:53:50.365Z,9.79
2023-03-27T00:58:00.177Z,9.75
2023-03-27T01:02:04.462Z,9.75
2023-03-27T01:06:08.764Z,9.73
2023-03-27T01:10:13.229Z,9.73
2023-03-27T01:14:27.509Z,9.71
2023-03-27T01:18:45.039Z,9.71
2023-03-27T01:23:35.862Z,9.71
2023-03-27T01:28:05.160Z,9.71
2023-03-27T01:32:44.904Z,9.68
2023-03-27T01:37:06.285Z,9.66
2023-03-27T01:41:16.916Z,9.59
2023-03-27T01:45:24.855Z,9.55
2023-03-27T01:49:32.113Z,9.50
2023-03-27T01:53:39.874Z,9.50
2023-03-27T01:57:50.277Z,9.41
2023-03-27T02:02:00.031Z,9.30
2023-03-27T02:06:08.779Z,9.16
2023-03-27T02:10:21.709Z,9.05
2023-03-27T02:14:29.908Z,8.98
2023-03-27T02:18:37.292Z,8.94
2023-03-27T02:22:40.669Z,8.92
2023-03-27T02:26:44.797Z,8.91
2023-03-27T02:31:05.787Z,8.84
2023-03-27T02:35:35.595Z,8.78
2023-03-27T02:39:48.910Z,8.78
2023-03-27T02:44:02.095Z,8.71
2023-03-27T02:48:35.474Z,8.72
2023-03-27T02:52:44.576Z,8.69
2023-03-27T02:56:51.895Z,8.68
2023-03-27T03:01:04.850Z,8.66
2023-03-27T03:05:22.238Z,8.64
2023-03-27T03:09:26.330Z,8.60
2023-03-27T03:13:29.498Z,8.55
2023-03-27T03:17:32.580Z,8.56
2023-03-27T03:21:37.695Z,8.49
2023-03-27T03:31:44.272Z,8.40
2023-03-27T03:35:49.090Z,8.35
2023-03-27T03:40:04.837Z,8.29
2023-03-27T03:44:08.163Z,8.25
2023-03-27T03:48:11.161Z,8.22
2023-03-27T03:52:14.236Z,8.19
2023-03-27T03:56:19.300Z,8.13
2023-03-27T04:00:26.870Z,8.09
2023-03-27T04:04:32.088Z,8.10
2023-03-27T04:08:42.760Z,8.05
2023-03-27T04:13:09.696Z,8.02
2023-03-27T04:17:20.663Z,7.99
2023-03-27T04:21:26.532Z,7.95
2023-03-27T04:25:30.080Z,7.93
2023-03-27T04:29:36.332Z,7.91
2023-03-27T04:33:46.695Z,7.87
2023-03-27T04:38:20.157Z,7.82
2023-03-27T04:42:28.126Z,7.82
2023-03-27T04:46:32.930Z,7.74
2023-03-27T04:50:44.116Z,7.87
2023-03-27T04:54:50.552Z,7.80
2023-03-27T04:58:54.258Z,7.76
2023-03-27T05:03:01.090Z,7.75
2023-03-27T05:07:13.164Z,7.70
2023-03-27T05:11:17.051Z,7.70
2023-03-27T05:15:22.771Z,7.69
2023-03-27T05:19:27.293Z,7.67
2023-03-27T05:23:36.571Z,7.67
2023-03-27T05:27:45.613Z,7.66
2023-03-27T05:31:48.723Z,7.64
2023-03-27T05:36:12.596Z,7.69
2023-03-27T05:40:20.994Z,7.69
2023-03-27T05:50:42.713Z,7.74
2023-03-27T05:54:57.989Z,7.74
2023-03-27T05:59:02.328Z,7.73
2023-03-27T06:03:09.676Z,7.73
2023-03-27T06:07:31.286Z,7.73
2023-03-27T06:11:41.138Z,7.75
2023-03-27T06:15:44.990Z,7.73
2023-03-27T06:19:57.984Z,7.71
2023-03-27T06:24:01.173Z,7.67
2023-03-27T06:28:08.053Z,7.61
2023-03-27T06:32:17.795Z,7.60
2023-03-27T06:36:27.546Z,7.56
2023-03-27T06:40:35.342Z,7.55
2023-03-27T06:44:39.916Z,7.56
2023-03-27T06:48:51.124Z,7.54
2023-03-27T06:52:55.454Z,7.53
2023-03-27T06:57:24.652Z,7.54
2023-03-27T07:01:36.824Z,7.54
2023-03-27T07:06:07.346Z,7.55
2023-03-27T07:10:19.880Z,7.55
2023-03-27T07:14:24.252Z,7.58
2023-03-27T07:18:28.911Z,7.59
2023-03-27T07:22:32.164Z,7.63
2023-03-27T07:26:41.201Z,7.64
2023-03-27T07:30:55.744Z,7.67
2023-03-27T07:35:00.438Z,7.65
2023-03-27T07:39:26.677Z,7.69
2023-03-27T07:43:29.828Z,7.73
2023-03-27T07:47:34.610Z,7.71
2023-03-27T07:51:39.868Z,7.71
2023-03-27T07:55:43.062Z,7.72
2023-03-27T07:59:46.328Z,7.73
2023-03-27T08:03:59.476Z,7.76
2023-03-27T08:08:05.953Z,7.76
2023-03-27T08:12:20.498Z,7.77
2023-03-27T08:16:32.832Z,7.78
2023-03-27T08:20:36.792Z,7.77
2023-03-27T08:24:41.167Z,7.82
2023-03-27T08:28:48.066Z,7.82
2023-03-27T08:32:51.123Z,7.77
2023-03-27T08:36:54.835Z,7.74
2023-03-27T08:41:05.089Z,7.75
2023-03-27T08:45:20.736Z,7.70
2023-03-27T08:49:31.939Z,7.69
2023-03-27T08:53:50.651Z,7.68
2023-03-27T08:58:01.066Z,7.68
2023-03-27T09:02:12.540Z,7.63
2023-03-27T09:06:25.874Z,7.60
2023-03-27T09:10:36.886Z,7.59
2023-03-27T09:14:59.491Z,7.54
2023-03-27T09:19:09.404Z,7.42
2023-03-27T09:23:17.790Z,7.24
2023-03-27T09:27:42.442Z,6.90
2023-03-27T09:32:16.842Z,6.64
2023-03-27T09:36:20.213Z,6.38
2023-03-27T09:40:30.308Z,6.25
2023-03-27T09:44:38.324Z,6.02
2023-03-27T09:48:50.347Z,5.93
2023-03-27T09:53:08.474Z,5.81
2023-03-27T09:57:38.588Z,5.69
2023-03-27T10:01:48.236Z,5.61
2023-03-27T10:06:06.968Z,5.43
2023-03-27T10:10:22.290Z,5.22
2023-03-27T10:14:49.497Z,5.12
2023-03-27T10:19:01.475Z,5.03
2023-03-27T10:23:25.303Z,4.92
2023-03-27T10:27:31.139Z,4.79
2023-03-27T10:32:12.536Z,4.67
2023-03-27T10:36:37.971Z,4.53
2023-03-27T10:40:51.962Z,4.36
2023-03-27T10:45:09.666Z,4.22
2023-03-27T10:49:25.639Z,4.14
2023-03-27T10:53:37.337Z,4.07
2023-03-27T10:57:46.371Z,4.02
2023-03-27T11:01:54.606Z,3.92
2023-03-27T11:06:01.376Z,3.92
2023-03-27T11:10:17.891Z,3.94
2023-03-27T11:14:29.038Z,3.85
2023-03-27T11:18:37.359Z,3.87
2023-03-27T11:22:47.237Z,3.76
2023-03-27T11:27:14.354Z,3.69
2023-03-27T11:31:32.473Z,3.71
2023-03-27T11:35:39.486Z,3.68
2023-03-27T11:40:13.068Z,3.61
2023-03-27T11:44:15.990Z,3.52
2023-03-27T11:49:12.787Z,3.57
2023-03-27T11:53:35.977Z,3.57
2023-03-27T11:58:05.286Z,3.52
2023-03-27T12:02:49.665Z,3.48
2023-03-27T12:07:12.250Z,3.45
2023-03-27T12:11:19.928Z,3.42
2023-03-27T12:15:58.111Z,3.42
2023-03-27T12:20:48.760Z,3.42
2023-03-27T12:25:29.003Z,3.49
2023-03-27T12:30:02.280Z,3.61
2023-03-27T12:34:12.288Z,3.74
2023-03-27T12:38:23.996Z,3.85
2023-03-27T12:42:44.592Z,3.98
2023-03-27T12:51:19.972Z,4.34
2023-03-27T12:55:37.198Z,4.46
2023-03-27T13:00:02.489Z,4.60
2023-03-27T13:04:38.294Z,4.77
2023-03-27T13:09:02.390Z,4.92
2023-03-27T13:13:40.690Z,5.05
2023-03-27T13:18:18.605Z,5.09
2023-03-27T13:22:37.053Z,5.19
2023-03-27T13:27:04.186Z,5.32
2023-03-27T13:31:14.678Z,5.33
2023-03-27T13:36:08.179Z,5.39
2023-03-27T13:40:33.300Z,5.51
2023-03-27T13:44:59.189Z,5.60
2023-03-27T13:49:19.354Z,5.62
2023-03-27T13:53:42.852Z,5.58
2023-03-27T13:58:20.959Z,5.59
2023-03-27T14:02:47.218Z,5.56
2023-03-27T14:07:26.035Z,5.49
2023-03-27T14:11:51.574Z,5.53
2023-03-27T14:16:42.475Z,5.61
2023-03-27T14:20:50.145Z,5.64
2023-03-27T14:24:57.711Z,5.63
2023-03-27T14:29:10.942Z,5.69
2023-03-27T14:33:20.304Z,5.75
2023-03-27T14:37:32.091Z,5.83
2023-03-27T14:41:46.735Z,5.86
2023-03-27T14:45:53.569Z,5.79
2023-03-27T14:50:01.681Z,5.69
2023-03-27T14:54:28.806Z,5.66
2023-03-27T14:58:44.001Z,5.60
2023-03-27T15:02:50.329Z,5.49
2023-03-27T15:06:55.987Z,5.41
2023-03-27T15:11:23.368Z,5.41
2023-03-27T15:15:39.756Z,5.40
2023-03-27T15:19:48.529Z,5.39
2023-03-27T15:24:00.973Z,5.38
2023-03-27T15:28:11.570Z,5.41
2023-03-27T15:32:18.564Z,5.47
2023-03-27T15:36:28.405Z,5.52
2023-03-27T15:40:36.691Z,5.56
2023-03-27T15:44:43.617Z,5.59
2023-03-27T15:48:50.835Z,5.59
2023-03-27T15:52:57.268Z,5.54
2023-03-27T15:57:10.790Z,5.42
2023-03-27T16:01:20.013Z,5.36
2023-03-27T16:05:23.164Z,5.42
2023-03-27T16:09:29.680Z,5.46
2023-03-27T16:13:37.520Z,5.28
2023-03-27T16:17:46.570Z,5.20
2023-03-27T16:21:57.535Z,5.13
2023-03-27T16:26:02.149Z,5.11
2023-03-27T16:30:06.671Z,5.03
2023-03-27T16:34:21.944Z,5.02
2023-03-27T16:38:26.215Z,4.98
2023-03-27T16:42:29.146Z,4.88
2023-03-27T16:46:33.190Z,4.87
2023-03-27T16:50:37.531Z,4.78
2023-03-27T16:54:41.627Z,4.71
2023-03-27T16:58:44.577Z,4.66
2023-03-27T17:02:47.701Z,4.62
2023-03-27T17:06:52.209Z,4.52
2023-03-27T17:10:55.162Z,4.52
2023-03-27T17:14:58.566Z,4.46
2023-03-27T17:19:01.495Z,4.43
2023-03-27T17:23:05.832Z,4.37
2023-03-27T17:27:08.972Z,4.34
2023-03-27T17:31:11.922Z,4.30
2023-03-27T17:35:14.996Z,4.25
2023-03-27T17:39:19.443Z,4.24
2023-03-27T17:43:22.368Z,4.17
2023-03-27T17:47:25.543Z,4.11
2023-03-27T17:51:28.446Z,4.06
2023-03-27T17:55:32.738Z,4.01
2023-03-27T17:59:36.371Z,3.96
2023-03-27T18:03:39.502Z,3.93
2023-03-27T18:07:42.557Z,3.91
2023-03-27T18:11:47.138Z,3.87
2023-03-27T18:15:55.223Z,3.87
2023-03-27T18:19:58.189Z,3.86
2023-03-27T18:24:01.293Z,3.84
2023-03-27T18:28:06.367Z,3.81
2023-03-27T18:32:09.360Z,3.77
2023-03-27T18:36:12.534Z,3.69
2023-03-27T18:40:18.330Z,3.62
2023-03-27T18:44:22.618Z,3.54
2023-03-27T18:48:26.081Z,3.46
2023-03-27T18:52:29.437Z,3.41
2023-03-27T18:56:32.382Z,3.37
2023-03-27T19:00:36.684Z,3.34
2023-03-27T19:04:39.617Z,3.31
2023-03-27T19:08:45.463Z,3.30
2023-03-27T19:12:49.670Z,3.27
2023-03-27T19:17:32.036Z,3.24
2023-03-27T19:22:08.367Z,3.22
2023-03-27T19:26:17.576Z,3.20
2023-03-27T19:30:21.906Z,3.20
2023-03-27T19:34:36.428Z,3.13
2023-03-27T19:38:45.892Z,3.09
2023-03-27T19:42:49.139Z,3.11
2023-03-27T19:46:52.084Z,3.07
2023-03-27T19:51:01.440Z,3.06
2023-03-27T19:55:10.942Z,3.04
2023-03-27T19:59:20.870Z,2.99
2023-03-27T20:03:31.329Z,2.95
2023-03-27T20:07:35.787Z,2.88
2023-03-27T20:11:39.343Z,2.83
2023-03-27T20:15:43.075Z,2.81
2023-03-27T20:19:48.771Z,2.74
2023-03-27T20:23:54.843Z,2.72
2023-03-27T20:28:07.371Z,2.68
2023-03-27T20:32:10.611Z,2.61
2023-03-27T20:36:14.193Z,2.62
2023-03-27T20:40:18.877Z,2.63
2023-03-27T20:44:21.799Z,2.55
2023-03-27T20:48:25.167Z,2.52
2023-03-27T20:52:28.424Z,2.49
2023-03-27T20:56:33.284Z,2.49
2023-03-27T21:00:36.619Z,2.43
2023-03-27T21:04:39.518Z,2.41
2023-03-27T21:08:42.495Z,2.37
2023-03-27T21:12:48.440Z,2.33
2023-03-27T21:16:51.507Z,2.31
2023-03-27T21:20:57.042Z,2.31
2023-03-27T21:25:00.050Z,2.29
2023-03-27T21:29:04.700Z,2.25
2023-03-27T21:33:08.326Z,2.21
2023-03-27T21:37:11.418Z,2.21
2023-03-27T21:41:16.336Z,2.20
2023-03-27T21:45:20.662Z,2.15
2023-03-27T21:49:23.800Z,2.14
2023-03-27T21:53:26.792Z,2.12
2023-03-27T21:57:29.713Z,2.08
2023-03-27T22:01:34.076Z,2.05
2023-03-27T22:05:38.516Z,2.03
2023-03-27T22:09:41.608Z,2.02
2023-03-27T22:13:46.401Z,1.98
2023-03-27T22:17:50.950Z,1.98
2023-03-27T22:21:54.051Z,1.95
2023-03-27T22:25:57.260Z,1.96
2023-03-27T22:30:00.506Z,1.91
2023-03-27T22:34:05.324Z,1.90
2023-03-27T22:38:08.650Z,1.88
2023-03-27T22:42:11.720Z,1.83
2023-03-27T22:46:17.239Z,1.81
2023-03-27T22:50:21.806Z,1.77
2023-03-27T22:54:24.790Z,1.74
2023-03-27T22:58:28.260Z,1.74
2023-03-27T23:02:31.339Z,1.72
2023-03-27T23:06:35.821Z,1.72
2023-03-27T23:10:38.790Z,1.69
2023-03-27T23:14:41.731Z,1.69
2023-03-27T23:18:44.676Z,1.65
2023-03-27T23:22:49.372Z,1.64
2023-03-27T23:26:52.694Z,1.62
2023-03-27T23:30:58.950Z,1.61
2023-03-27T23:35:02.176Z,1.57
2023-03-27T23:39:06.548Z,1.58
2023-03-27T23:43:09.471Z,1.52
2023-03-27T23:47:12.404Z,1.53
2023-03-27T23:51:17.106Z,1.53
2023-03-27T23:55:21.382Z,1.56
2023-03-27T23:59:24.387Z,1.55
